Aviation Digital Data Service (ADDS)

Output produced by METARs form (1717 UTC 18 January 2018)
found at http://aviationweather.gov/adds/metars/
 
KDAG 181650Z AUTO 00000KT 10SM CLR 11/02 A3020 RMK AO2 SLP221 T01110022
KDAG 181123Z 1812/1912 27007KT P6SM BKN250 
     FM181900 08007KT P6SM BKN250 
     FM190100 24008KT P6SM BKN250
       
KEDW 181658Z 36005KT 80SM FEW250 BKN350 06/01 A3018 RMK AO2A SLP222 CONTRAILS T00550005
TAF KEDW 181001Z 1810/1916 VRB05KT 9999 FEW250 SCT300 QNH3019INS 
     BECMG 1819/1820 22009KT 9999 SCT300 QNH3005INS 
     BECMG 1904/1905 20006KT 9999 BKN200 QNH2999INS TX21/1823Z TN03/1814Z
       
KVCV 181647Z 12009KT 10SM SKC 09/01 A3021
KONT 181653Z 00000KT 10SM FEW220 SCT250 17/04 A3013 RMK AO2 SLP196 T01720039
KONT 181120Z 1812/1918 VRB06KT P6SM SCT250 
     FM182100 25009KT P6SM SCT250 
     FM190300 26005KT P6SM SCT250 
     FM191200 VRB04KT 4SM BR BKN005 
     FM191600 VRB04KT P6SM OVC010
       
KSNA 181653Z 00000KT 8SM SCT250 17/09 A3010 RMK AO2 SLP194 T01670094
KSNA 181120Z 1812/1912 VRB03KT P6SM SCT250 
     FM182100 22007KT P6SM SCT250 
     FM190100 VRB04KT P6SM SCT009 SCT250 
     FM190400 VRB03KT 5SM BR BKN008 
     FM191000 VRB03KT P6SM OVC015
       
KSAN 181709Z 18005KT 1/2SM R09/2200V5000FT FG VV002 14/13 A3017 RMK AO2 T01390133
KSAN 181648Z 1817/1918 19007KT 1/4SM FG BKN002 
     FM181715 19007KT 1/2SM FG BKN005 
     FM181730 19007KT 1SM BR BKN005 
     FM181800 20007KT 3SM BR SCT007 
     FM182100 29010KT P6SM SCT250 
     FM190200 VRB05KT P6SM SCT008 SCT250 
     FM190300 VRB03KT 5SM BR BKN007 
     FM191200 VRB03KT P6SM OVC015
       
KNID 181656Z 00000KT 10SM BKN270 09/04 A3019 RMK AO2 SLP225 T00940039 $
TAF KNID 1815/1915 VRB05KT 9999 SCT270 QNH2999INS 
     BECMG 1822/1900 23015KT 9999 BKN250 OVC300 QNH2997INS 
     BECMG 1904/1906 23018G25KT 9999 FEW080 SCT160 BKN240 610809 540807 QNH2992INS 
     TEMPO 1912/1915 23020G28KT 9999 VCSHRA BKN080 T21/1822Z T04/1913Z
       
KNXP 181656Z 00000KT 9SM FEW200 13/02 A3028 RMK AO2 SLP236 T01280017
TAF KNXP 1815/1915 VRB05KT 9999 FEW200 QNH3018INS 
     BECMG 1821/1823 17006KT 9999 FEW200 QNH3008INS 
     BECMG 1909/1911 24005KT 9999 FEW200 QNH3000INS T07/1815Z T21/1823Z
       
KPSP 181653Z 34003KT 10SM CLR 18/05 A3019 RMK AO2 SLP223 T01830050
KPSP 181120Z 1812/1912 VRB05KT P6SM SCT250
       
KLAX 181653Z 11004KT 10SM FEW027 FEW160 SCT180 17/09 A3010 RMK AO2 SLP192 T01670089 $
KLAX 181531Z 1816/1918 VRB03KT P6SM BKN200 
     FM182000 26010KT P6SM BKN200 
     FM190300 VRB03KT P6SM SCT025 BKN150 
     FM190600 VRB03KT P6SM OVC015 
     FM191300 12006KT P6SM OVC025
       
KCNO 181653Z 00000KT 10SM SCT200 16/07 A3014 RMK AO2 SLP205 T01560072
KSMO 181651Z 00000KT 10SM CLR 17/07 A3010 RMK AO2 SLP192 T01720072
KSMO 181127Z 1812/1912 VRB03KT P6SM BKN200 
     FM182000 24007KT P6SM BKN200 
     FM190300 VRB03KT P6SM SCT025 BKN150 
     FM190600 VRB03KT P6SM OVC015
       
KLGB 181653Z 10003KT 8SM CLR 16/10 A3011 RMK AO2 SLP194 T01560100
KLGB 181127Z 1812/1912 VRB03KT P6SM BKN200 
     FM182000 18006KT 6SM HZ BKN200 
     FM190300 VRB03KT P6SM SCT025 BKN150 
     FM190600 VRB03KT P6SM OVC015
       
KVNY 181651Z 00000KT 10SM CLR 16/05 A3010 RMK AO2 SLP188 T01610050
KVNY 181127Z 1812/1912 VRB03KT P6SM BKN200 
     FM182300 15006KT P6SM BKN200 
     FM190400 VRB03KT P6SM BKN200 
     FM190900 VRB03KT 5SM BR OVC015
       
KBUR 181653Z 00000KT 10SM CLR 17/06 A3010 RMK AO2 SLP185 T01670056
KBUR 181127Z 1812/1912 VRB03KT P6SM BKN200 
     FM182100 17007KT P6SM BKN200 
     FM190400 VRB03KT P6SM BKN150 
     FM190900 VRB03KT 5SM BR OVC015
       
KBFL 181654Z 32003KT M1/4SM R30R/0600V1000FT FG VV001 08/07 A3012 RMK AO2 SLP199 T00780072
KBFL 181550Z 1816/1912 04005KT 4SM BR SCT002 
     TEMPO 1816/1819 1/4SM FG BKN002 
     FM190200 33005KT 5SM HZ OVC250 
     PROB30 1906/1912 -RA BKN040
       
KPMD 181653Z AUTO 00000KT 10SM CLR 11/03 A3019 RMK AO2 SLP218 T01060033
KPMD 181127Z 1812/1912 VRB05KT P6SM BKN200 
     FM182200 24010KT P6SM BKN150
       
KOXR 181651Z 00000KT 10SM CLR 18/07 A3009 RMK AO2 SLP187 T01780067
KOXR 181127Z 1812/1912 VRB03KT 4SM BR BKN200 
     FM181600 VRB03KT P6SM BKN200 
     FM181900 28008KT P6SM BKN200 
     FM190300 VRB03KT P6SM SCT015 BKN100 
     FM190600 VRB03KT P6SM OVC015
       
KWJF 181656Z 00000KT 10SM CLR 07/03 A3020 RMK AO2 SLP234 T00720033
KWJF 181127Z 1812/1912 VRB05KT P6SM BKN200 
     FM182200 24010KT P6SM SCT200
       
KCMA 181655Z 00000KT 10SM CLR 14/08 A3009 RMK AO2 SLP198 T01440083
KCMA 181127Z 1812/1912 VRB03KT P6SM BKN200 
     FM181900 23007KT P6SM BKN200 
     FM190300 VRB03KT P6SM SCT025 BKN100 
     FM190600 VRB03KT P6SM OVC015
       
KFAT 181653Z 09006KT 1SM R29R/P6000FT BR OVC004 10/08 A3015 RMK AO2 SLP209 T01000083
KFAT 181120Z 1812/1912 32004KT 1/4SM FG VV002 
     TEMPO 1814/1818 1SM BR OVC006 
     FM181800 VRB03KT 1SM BR OVC006 
     FM182000 VRB04KT 2SM BR SCT006 BKN120 OVC250 
     FM190000 15006KT 5SM HZ OVC120 
     TEMPO 1900/1904 -RA BKN050 
     FM190400 30007KT P6SM -RA BKN050 OVC120
       
KEED 181656Z AUTO 00000KT 10SM CLR 15/02 A3022 RMK AO2 SLP219 T01500022
KEED 181123Z 1812/1912 28006KT P6SM BKN250 
     FM181400 VRB05KT P6SM BKN250 
     FM190200 23006KT P6SM BKN250
       
KLSV 181658Z 01004KT 10SM FEW200 BKN300 12/04 A3027 RMK AO2A SLP256 ALSTG/SLP DATA ESTMD T01220038 $
TAF KLSV 181502Z 1815/1921 VRB06KT 9999 SCT100 BKN200 QNH3004INS 
     BECMG 1905/1906 09009KT 9999 SCT150 BKN200 QNH2989INS TX17/1823Z TN07/1911Z
       
KLAS 181656Z 00000KT 10SM BKN250 13/04 A3024 RMK AO2 SLP234 T01330039
KLAS 181434Z 1815/1918 VRB05KT P6SM OVC250 
     FM181900 09007KT P6SM BKN250 
     FM190300 21008KT P6SM BKN250
       
KHII 181655Z AUTO 00000KT 10SM CLR 13/03 A3021 RMK AO2
KIFP 181655Z 00000KT 10SM CLR 13/04 A3023 RMK AO2
KIFP 181123Z 1812/1912 02008KT P6SM BKN250 
     FM181500 VRB05KT P6SM BKN250 
     FM182100 18009KT P6SM BKN250